sensor_id;sensor_type;location;lat;lon;timestamp;temperature;humidity
7814;DHT22;3952;48.364;16.022;2023-02-22T00:00:33;9.90;99.90
7814;DHT22;3952;48.364;16.022;2023-02-22T00:03:09;9.90;99.90
7814;DHT22;3952;48.364;16.022;2023-02-22T00:05:37;9.90;99.90
7814;DHT22;3952;48.364;16.022;2023-02-22T00:08:07;9.80;99.90
7814;DHT22;3952;48.364;16.022;2023-02-22T00:10:36;9.80;99.90
7814;DHT22;3952;48.364;16.022;2023-02-22T00:13:05;9.80;99.90
7814;DHT22;3952;48.364;16.022;2023-02-22T00:15:33;9.80;99.90
7814;DHT22;3952;48.364;16.022;2023-02-22T00:18:02;9.80;99.90
7814;DHT22;3952;48.364;16.022;2023-02-22T00:20:29;9.80;99.90
7814;DHT22;3952;48.364;16.022;2023-02-22T00:22:56;9.80;99.90
7814;DHT22;3952;48.364;16.022;2023-02-22T00:25:27;9.90;99.90
7814;DHT22;3952;48.364;16.022;2023-02-22T00:27:54;9.90;99.90
7814;DHT22;3952;48.364;16.022;2023-02-22T00:30:23;9.90;99.90
7814;DHT22;3952;48.364;16.022;2023-02-22T00:32:52;9.80;99.90
7814;DHT22;3952;48.364;16.022;2023-02-22T00:35:22;9.80;99.90
7814;DHT22;3952;48.364;16.022;2023-02-22T00:37:53;9.70;99.90
7814;DHT22;3952;48.364;16.022;2023-02-22T00:40:22;9.80;99.90
7814;DHT22;3952;48.364;16.022;2023-02-22T00:42:51;9.80;99.90
7814;DHT22;3952;48.364;16.022;2023-02-22T00:45:20;9.70;99.90
7814;DHT22;3952;48.364;16.022;2023-02-22T00:47:48;9.80;99.90
7814;DHT22;3952;48.364;16.022;2023-02-22T00:50:16;9.80;99.90
7814;DHT22;3952;48.364;16.022;2023-02-22T00:52:43;9.70;99.90
7814;DHT22;3952;48.364;16.022;2023-02-22T00:55:16;9.80;99.90
7814;DHT22;3952;48.364;16.022;2023-02-22T00:57:43;9.80;99.90
7814;DHT22;3952;48.364;16.022;2023-02-22T01:00:17;9.80;99.90
7814;DHT22;3952;48.364;16.022;2023-02-22T01:02:45;9.80;99.90
7814;DHT22;3952;48.364;16.022;2023-02-22T01:05:16;9.80;99.90
7814;DHT22;3952;48.364;16.022;2023-02-22T01:07:44;9.80;99.90
7814;DHT22;3952;48.364;16.022;2023-02-22T01:10:11;9.80;99.90
7814;DHT22;3952;48.364;16.022;2023-02-22T01:12:38;9.80;99.90
7814;DHT22;3952;48.364;16.022;2023-02-22T01:15:09;9.80;99.90
7814;DHT22;3952;48.364;16.022;2023-02-22T01:17:39;9.80;99.90
7814;DHT22;3952;48.364;16.022;2023-02-22T01:20:10;9.80;99.90
7814;DHT22;3952;48.364;16.022;2023-02-22T01:22:38;9.80;99.90
7814;DHT22;3952;48.364;16.022;2023-02-22T01:25:06;9.70;99.90
7814;DHT22;3952;48.364;16.022;2023-02-22T01:27:34;9.70;99.90
7814;DHT22;3952;48.364;16.022;2023-02-22T01:30:02;9.70;99.90
7814;DHT22;3952;48.364;16.022;2023-02-22T01:32:33;9.70;99.90
7814;DHT22;3952;48.364;16.022;2023-02-22T01:35:04;9.60;99.90
7814;DHT22;3952;48.364;16.022;2023-02-22T01:37:33;9.60;99.90
7814;DHT22;3952;48.364;16.022;2023-02-22T01:40:01;9.60;99.90
7814;DHT22;3952;48.364;16.022;2023-02-22T01:42:28;9.60;99.90
7814;DHT22;3952;48.364;16.022;2023-02-22T01:48:09;9.60;99.90
7814;DHT22;3952;48.364;16.022;2023-02-22T01:50:43;9.60;99.90
7814;DHT22;3952;48.364;16.022;2023-02-22T01:53:14;9.60;99.90
7814;DHT22;3952;48.364;16.022;2023-02-22T01:55:43;9.60;99.90
7814;DHT22;3952;48.364;16.022;2023-02-22T01:58:12;9.50;99.90
7814;DHT22;3952;48.364;16.022;2023-02-22T02:00:40;9.50;99.90
7814;DHT22;3952;48.364;16.022;2023-02-22T02:03:13;9.50;99.90
7814;DHT22;3952;48.364;16.022;2023-02-22T02:05:44;9.50;99.90
7814;DHT22;3952;48.364;16.022;2023-02-22T02:08:20;9.50;99.90
7814;DHT22;3952;48.364;16.022;2023-02-22T02:10:49;9.60;99.90
7814;DHT22;3952;48.364;16.022;2023-02-22T02:13:16;9.60;99.90
7814;DHT22;3952;48.364;16.022;2023-02-22T02:15:43;9.60;99.90
7814;DHT22;3952;48.364;16.022;2023-02-22T02:18:12;9.60;99.90
7814;DHT22;3952;48.364;16.022;2023-02-22T02:20:50;9.60;99.90
7814;DHT22;3952;48.364;16.022;2023-02-22T02:24:08;9.60;99.90
7814;DHT22;3952;48.364;16.022;2023-02-22T02:27:09;9.60;99.90
7814;DHT22;3952;48.364;16.022;2023-02-22T02:30:35;9.60;99.90
7814;DHT22;3952;48.364;16.022;2023-02-22T02:33:11;9.70;99.90
7814;DHT22;3952;48.364;16.022;2023-02-22T02:35:48;9.60;99.90
7814;DHT22;3952;48.364;16.022;2023-02-22T02:38:25;9.60;99.90
7814;DHT22;3952;48.364;16.022;2023-02-22T02:41:06;9.60;99.90
7814;DHT22;3952;48.364;16.022;2023-02-22T02:43:40;9.50;99.90
7814;DHT22;3952;48.364;16.022;2023-02-22T02:46:13;9.50;99.90
7814;DHT22;3952;48.364;16.022;2023-02-22T02:48:45;9.50;99.90
7814;DHT22;3952;48.364;16.022;2023-02-22T02:51:14;9.50;99.90
7814;DHT22;3952;48.364;16.022;2023-02-22T02:53:46;9.40;99.90
7814;DHT22;3952;48.364;16.022;2023-02-22T02:56:16;9.40;99.90
7814;DHT22;3952;48.364;16.022;2023-02-22T02:58:48;9.40;99.90
7814;DHT22;3952;48.364;16.022;2023-02-22T03:01:31;9.40;99.90
7814;DHT22;3952;48.364;16.022;2023-02-22T03:04:10;9.40;99.90
7814;DHT22;3952;48.364;16.022;2023-02-22T03:07:10;9.40;99.90
7814;DHT22;3952;48.364;16.022;2023-02-22T03:09:49;9.40;99.90
7814;DHT22;3952;48.364;16.022;2023-02-22T03:12:33;9.40;99.90
7814;DHT22;3952;48.364;16.022;2023-02-22T03:15:12;9.40;99.90
7814;DHT22;3952;48.364;16.022;2023-02-22T03:17:46;9.40;99.90
7814;DHT22;3952;48.364;16.022;2023-02-22T03:20:21;9.40;99.90
7814;DHT22;3952;48.364;16.022;2023-02-22T03:23:00;9.40;99.90
7814;DHT22;3952;48.364;16.022;2023-02-22T03:25:33;9.40;99.90
7814;DHT22;3952;48.364;16.022;2023-02-22T03:28:05;9.40;99.90
7814;DHT22;3952;48.364;16.022;2023-02-22T03:30:40;9.30;99.90
7814;DHT22;3952;48.364;16.022;2023-02-22T03:33:12;9.30;99.90
7814;DHT22;3952;48.364;16.022;2023-02-22T03:35:45;9.40;99.90
7814;DHT22;3952;48.364;16.022;2023-02-22T03:38:17;9.40;99.90
7814;DHT22;3952;48.364;16.022;2023-02-22T03:40:48;9.40;99.90
7814;DHT22;3952;48.364;16.022;2023-02-22T03:43:22;9.40;99.90
7814;DHT22;3952;48.364;16.022;2023-02-22T03:45:51;9.40;99.90
7814;DHT22;3952;48.364;16.022;2023-02-22T03:48:24;9.40;99.90
7814;DHT22;3952;48.364;16.022;2023-02-22T03:50:53;9.40;99.90
7814;DHT22;3952;48.364;16.022;2023-02-22T03:53:24;9.40;99.90
7814;DHT22;3952;48.364;16.022;2023-02-22T03:55:53;9.40;99.90
7814;DHT22;3952;48.364;16.022;2023-02-22T03:58:23;9.40;99.90
7814;DHT22;3952;48.364;16.022;2023-02-22T04:00:53;9.40;99.90
7814;DHT22;3952;48.364;16.022;2023-02-22T04:03:21;9.40;99.90
7814;DHT22;3952;48.364;16.022;2023-02-22T04:05:49;9.40;99.90
7814;DHT22;3952;48.364;16.022;2023-02-22T04:08:18;9.40;99.90
7814;DHT22;3952;48.364;16.022;2023-02-22T04:10:45;9.40;99.90
7814;DHT22;3952;48.364;16.022;2023-02-22T04:13:12;9.30;99.90
7814;DHT22;3952;48.364;16.022;2023-02-22T04:15:39;9.30;99.90
7814;DHT22;3952;48.364;16.022;2023-02-22T04:18:07;9.20;99.90
7814;DHT22;3952;48.364;16.022;2023-02-22T04:20:34;9.10;99.90
7814;DHT22;3952;48.364;16.022;2023-02-22T04:23:01;9.10;99.90
7814;DHT22;3952;48.364;16.022;2023-02-22T04:25:30;9.10;99.90
7814;DHT22;3952;48.364;16.022;2023-02-22T04:27:57;9.20;99.90
7814;DHT22;3952;48.364;16.022;2023-02-22T04:30:25;9.20;99.90
7814;DHT22;3952;48.364;16.022;2023-02-22T04:32:53;9.20;99.90
7814;DHT22;3952;48.364;16.022;2023-02-22T04:35:20;9.20;99.90
7814;DHT22;3952;48.364;16.022;2023-02-22T04:37:47;9.20;99.90
7814;DHT22;3952;48.364;16.022;2023-02-22T04:40:15;9.20;99.90
7814;DHT22;3952;48.364;16.022;2023-02-22T04:42:44;9.20;99.90
7814;DHT22;3952;48.364;16.022;2023-02-22T04:45:12;9.20;99.90
7814;DHT22;3952;48.364;16.022;2023-02-22T04:47:40;9.20;99.90
7814;DHT22;3952;48.364;16.022;2023-02-22T04:50:08;9.20;99.90
7814;DHT22;3952;48.364;16.022;2023-02-22T04:52:36;9.20;99.90
7814;DHT22;3952;48.364;16.022;2023-02-22T04:55:05;9.20;99.90
7814;DHT22;3952;48.364;16.022;2023-02-22T04:57:32;9.20;99.90
7814;DHT22;3952;48.364;16.022;2023-02-22T05:00:01;9.30;99.90
7814;DHT22;3952;48.364;16.022;2023-02-22T05:02:29;9.30;99.90
7814;DHT22;3952;48.364;16.022;2023-02-22T05:04:56;9.20;99.90
7814;DHT22;3952;48.364;16.022;2023-02-22T05:07:23;9.20;99.90
7814;DHT22;3952;48.364;16.022;2023-02-22T05:09:51;9.10;99.90
7814;DHT22;3952;48.364;16.022;2023-02-22T05:12:18;9.10;99.90
7814;DHT22;3952;48.364;16.022;2023-02-22T05:14:46;9.00;99.90
7814;DHT22;3952;48.364;16.022;2023-02-22T05:17:14;9.00;99.90
7814;DHT22;3952;48.364;16.022;2023-02-22T05:19:41;9.00;99.90
7814;DHT22;3952;48.364;16.022;2023-02-22T05:22:09;9.00;99.90
7814;DHT22;3952;48.364;16.022;2023-02-22T05:24:36;9.00;99.90
7814;DHT22;3952;48.364;16.022;2023-02-22T05:27:03;9.00;99.90
7814;DHT22;3952;48.364;16.022;2023-02-22T05:29:30;9.00;99.90
7814;DHT22;3952;48.364;16.022;2023-02-22T05:31:57;9.00;99.90
7814;DHT22;3952;48.364;16.022;2023-02-22T05:34:28;9.00;99.90
7814;DHT22;3952;48.364;16.022;2023-02-22T05:36:56;9.00;99.90
7814;DHT22;3952;48.364;16.022;2023-02-22T05:39:23;9.00;99.90
7814;DHT22;3952;48.364;16.022;2023-02-22T05:41:50;9.00;99.90
7814;DHT22;3952;48.364;16.022;2023-02-22T05:44:17;9.00;99.90
7814;DHT22;3952;48.364;16.022;2023-02-22T05:46:45;9.00;99.90
7814;DHT22;3952;48.364;16.022;2023-02-22T05:49:12;9.00;99.90
7814;DHT22;3952;48.364;16.022;2023-02-22T05:51:40;9.00;99.90
7814;DHT22;3952;48.364;16.022;2023-02-22T05:54:07;9.10;99.90
7814;DHT22;3952;48.364;16.022;2023-02-22T05:56:35;9.10;99.90
7814;DHT22;3952;48.364;16.022;2023-02-22T05:59:02;9.10;99.90
7814;DHT22;3952;48.364;16.022;2023-02-22T06:01:29;9.10;99.90
7814;DHT22;3952;48.364;16.022;2023-02-22T06:03:57;9.10;99.90
7814;DHT22;3952;48.364;16.022;2023-02-22T06:06:24;9.10;99.90
7814;DHT22;3952;48.364;16.022;2023-02-22T06:08:53;9.10;99.90
7814;DHT22;3952;48.364;16.022;2023-02-22T06:11:20;9.20;99.90
7814;DHT22;3952;48.364;16.022;2023-02-22T06:13:50;9.10;99.90
7814;DHT22;3952;48.364;16.022;2023-02-22T06:16:19;9.20;99.90
7814;DHT22;3952;48.364;16.022;2023-02-22T06:18:47;9.20;99.90
7814;DHT22;3952;48.364;16.022;2023-02-22T06:21:14;9.20;99.90
7814;DHT22;3952;48.364;16.022;2023-02-22T06:23:42;9.20;99.90
7814;DHT22;3952;48.364;16.022;2023-02-22T06:26:10;9.20;99.90
7814;DHT22;3952;48.364;16.022;2023-02-22T06:28:37;9.20;99.90
7814;DHT22;3952;48.364;16.022;2023-02-22T06:31:05;9.20;99.90
7814;DHT22;3952;48.364;16.022;2023-02-22T06:33:32;9.20;99.90
7814;DHT22;3952;48.364;16.022;2023-02-22T06:35:59;9.20;99.90
7814;DHT22;3952;48.364;16.022;2023-02-22T06:38:26;9.20;99.90
7814;DHT22;3952;48.364;16.022;2023-02-22T06:40:54;9.20;99.90
7814;DHT22;3952;48.364;16.022;2023-02-22T06:43:23;9.10;99.90
7814;DHT22;3952;48.364;16.022;2023-02-22T06:45:51;9.10;99.90
7814;DHT22;3952;48.364;16.022;2023-02-22T06:48:18;9.10;99.90
7814;DHT22;3952;48.364;16.022;2023-02-22T06:50:46;9.10;99.90
7814;DHT22;3952;48.364;16.022;2023-02-22T06:53:13;9.10;99.90
7814;DHT22;3952;48.364;16.022;2023-02-22T06:55:40;9.10;99.90
7814;DHT22;3952;48.364;16.022;2023-02-22T06:58:07;9.10;99.90
7814;DHT22;3952;48.364;16.022;2023-02-22T07:00:36;9.10;99.90
7814;DHT22;3952;48.364;16.022;2023-02-22T07:03:03;9.20;99.90
7814;DHT22;3952;48.364;16.022;2023-02-22T07:05:30;9.20;99.90
7814;DHT22;3952;48.364;16.022;2023-02-22T07:08:02;9.20;99.90
7814;DHT22;3952;48.364;16.022;2023-02-22T07:10:32;9.30;99.90
7814;DHT22;3952;48.364;16.022;2023-02-22T07:13:00;9.30;99.90
7814;DHT22;3952;48.364;16.022;2023-02-22T07:15:29;9.40;99.90
7814;DHT22;3952;48.364;16.022;2023-02-22T07:17:59;9.40;99.90
7814;DHT22;3952;48.364;16.022;2023-02-22T07:20:28;9.50;99.90
7814;DHT22;3952;48.364;16.022;2023-02-22T07:22:55;9.50;99.90
7814;DHT22;3952;48.364;16.022;2023-02-22T07:25:22;9.50;99.90
7814;DHT22;3952;48.364;16.022;2023-02-22T07:27:50;9.50;99.90
7814;DHT22;3952;48.364;16.022;2023-02-22T07:30:20;9.50;99.90
7814;DHT22;3952;48.364;16.022;2023-02-22T07:32:50;9.50;99.90
7814;DHT22;3952;48.364;16.022;2023-02-22T07:35:22;9.60;99.90
7814;DHT22;3952;48.364;16.022;2023-02-22T07:37:50;9.60;99.90
7814;DHT22;3952;48.364;16.022;2023-02-22T07:40:17;9.60;99.90
7814;DHT22;3952;48.364;16.022;2023-02-22T07:42:55;9.60;99.90
7814;DHT22;3952;48.364;16.022;2023-02-22T07:45:24;9.60;99.90
7814;DHT22;3952;48.364;16.022;2023-02-22T07:47:52;9.70;99.90
7814;DHT22;3952;48.364;16.022;2023-02-22T07:50:22;9.70;99.90
7814;DHT22;3952;48.364;16.022;2023-02-22T07:52:51;9.80;99.90
7814;DHT22;3952;48.364;16.022;2023-02-22T07:55:20;9.80;99.90
7814;DHT22;3952;48.364;16.022;2023-02-22T07:57:49;9.80;99.90
7814;DHT22;3952;48.364;16.022;2023-02-22T08:00:21;9.90;99.90
7814;DHT22;3952;48.364;16.022;2023-02-22T08:02:49;9.90;99.90
7814;DHT22;3952;48.364;16.022;2023-02-22T08:05:16;9.90;99.90
7814;DHT22;3952;48.364;16.022;2023-02-22T08:07:45;9.90;99.90
7814;DHT22;3952;48.364;16.022;2023-02-22T08:10:14;10.00;99.90
7814;DHT22;3952;48.364;16.022;2023-02-22T08:12:42;10.00;99.90
7814;DHT22;3952;48.364;16.022;2023-02-22T08:15:15;10.00;99.90
7814;DHT22;3952;48.364;16.022;2023-02-22T08:17:47;10.10;99.90
7814;DHT22;3952;48.364;16.022;2023-02-22T08:20:15;10.20;99.90
7814;DHT22;3952;48.364;16.022;2023-02-22T08:22:42;10.20;99.90
7814;DHT22;3952;48.364;16.022;2023-02-22T08:25:11;10.30;99.90
7814;DHT22;3952;48.364;16.022;2023-02-22T08:27:41;10.30;99.90
7814;DHT22;3952;48.364;16.022;2023-02-22T08:30:13;10.40;99.90
7814;DHT22;3952;48.364;16.022;2023-02-22T08:32:40;10.50;99.90
7814;DHT22;3952;48.364;16.022;2023-02-22T08:35:07;10.60;99.90
7814;DHT22;3952;48.364;16.022;2023-02-22T08:37:34;10.60;99.90
7814;DHT22;3952;48.364;16.022;2023-02-22T08:40:02;10.30;99.90
7814;DHT22;3952;48.364;16.022;2023-02-22T08:42:31;10.70;99.90
7814;DHT22;3952;48.364;16.022;2023-02-22T08:44:58;10.70;99.90
7814;DHT22;3952;48.364;16.022;2023-02-22T08:47:25;10.90;99.90
7814;DHT22;3952;48.364;16.022;2023-02-22T08:49:52;11.00;99.90
7814;DHT22;3952;48.364;16.022;2023-02-22T08:52:20;11.10;99.90
7814;DHT22;3952;48.364;16.022;2023-02-22T08:54:47;11.10;99.90
7814;DHT22;3952;48.364;16.022;2023-02-22T08:57:14;11.10;99.90
7814;DHT22;3952;48.364;16.022;2023-02-22T08:59:43;11.10;99.90
7814;DHT22;3952;48.364;16.022;2023-02-22T09:02:14;11.20;99.90
7814;DHT22;3952;48.364;16.022;2023-02-22T09:04:42;11.30;99.90
7814;DHT22;3952;48.364;16.022;2023-02-22T09:07:09;11.30;99.90
7814;DHT22;3952;48.364;16.022;2023-02-22T09:09:37;11.40;99.90
7814;DHT22;3952;48.364;16.022;2023-02-22T09:12:05;11.50;99.90
7814;DHT22;3952;48.364;16.022;2023-02-22T09:14:32;11.60;99.90
7814;DHT22;3952;48.364;16.022;2023-02-22T09:17:01;11.80;99.90
7814;DHT22;3952;48.364;16.022;2023-02-22T09:19:28;11.90;99.90
7814;DHT22;3952;48.364;16.022;2023-02-22T09:21:57;12.00;99.90
7814;DHT22;3952;48.364;16.022;2023-02-22T09:24:25;12.10;99.90
7814;DHT22;3952;48.364;16.022;2023-02-22T09:26:52;12.30;99.90
7814;DHT22;3952;48.364;16.022;2023-02-22T09:29:20;12.40;99.90
7814;DHT22;3952;48.364;16.022;2023-02-22T09:31:49;12.40;99.90
7814;DHT22;3952;48.364;16.022;2023-02-22T09:34:18;12.50;99.90
7814;DHT22;3952;48.364;16.022;2023-02-22T09:36:48;12.70;99.90
7814;DHT22;3952;48.364;16.022;2023-02-22T09:39:16;12.80;99.90
7814;DHT22;3952;48.364;16.022;2023-02-22T09:41:50;12.90;99.90
7814;DHT22;3952;48.364;16.022;2023-02-22T09:44:24;13.00;99.90
7814;DHT22;3952;48.364;16.022;2023-02-22T09:46:53;13.10;99.90
7814;DHT22;3952;48.364;16.022;2023-02-22T09:49:27;13.30;99.90
7814;DHT22;3952;48.364;16.022;2023-02-22T09:52:00;13.60;99.90
7814;DHT22;3952;48.364;16.022;2023-02-22T09:54:31;13.80;99.90
7814;DHT22;3952;48.364;16.022;2023-02-22T09:57:03;14.00;99.90
7814;DHT22;3952;48.364;16.022;2023-02-22T09:59:33;14.20;99.90
7814;DHT22;3952;48.364;16.022;2023-02-22T10:02:16;14.20;99.90
7814;DHT22;3952;48.364;16.022;2023-02-22T10:04:51;14.50;99.90
7814;DHT22;3952;48.364;16.022;2023-02-22T10:07:27;14.80;99.90
7814;DHT22;3952;48.364;16.022;2023-02-22T10:09:56;15.30;99.90
7814;DHT22;3952;48.364;16.022;2023-02-22T10:12:38;15.70;99.90
7814;DHT22;3952;48.364;16.022;2023-02-22T10:21:38;16.50;99.90
7814;DHT22;3952;48.364;16.022;2023-02-22T10:24:16;16.80;99.90
7814;DHT22;3952;48.364;16.022;2023-02-22T10:26:48;16.80;99.90
7814;DHT22;3952;48.364;16.022;2023-02-22T10:29:26;16.80;99.90
7814;DHT22;3952;48.364;16.022;2023-02-22T10:31:58;16.70;99.90
7814;DHT22;3952;48.364;16.022;2023-02-22T10:34:29;16.70;99.90
7814;DHT22;3952;48.364;16.022;2023-02-22T10:37:09;16.60;99.90
7814;DHT22;3952;48.364;16.022;2023-02-22T10:39:41;16.60;99.90
7814;DHT22;3952;48.364;16.022;2023-02-22T10:42:11;16.50;99.90
7814;DHT22;3952;48.364;16.022;2023-02-22T10:44:40;16.70;99.90
7814;DHT22;3952;48.364;16.022;2023-02-22T10:47:10;16.80;99.90
7814;DHT22;3952;48.364;16.022;2023-02-22T10:49:41;16.80;99.90
7814;DHT22;3952;48.364;16.022;2023-02-22T10:52:13;16.90;99.90
7814;DHT22;3952;48.364;16.022;2023-02-22T10:54:45;17.20;99.90
7814;DHT22;3952;48.364;16.022;2023-02-22T10:57:15;17.40;99.90
7814;DHT22;3952;48.364;16.022;2023-02-22T10:59:45;17.50;99.90
7814;DHT22;3952;48.364;16.022;2023-02-22T11:02:18;17.60;99.90
7814;DHT22;3952;48.364;16.022;2023-02-22T11:04:48;17.90;99.90
7814;DHT22;3952;48.364;16.022;2023-02-22T11:07:22;18.00;99.90
7814;DHT22;3952;48.364;16.022;2023-02-22T11:09:52;17.80;99.90
7814;DHT22;3952;48.364;16.022;2023-02-22T11:12:26;18.30;99.90
7814;DHT22;3952;48.364;16.022;2023-02-22T11:14:53;17.50;99.90
7814;DHT22;3952;48.364;16.022;2023-02-22T11:17:29;17.30;99.90
7814;DHT22;3952;48.364;16.022;2023-02-22T11:19:57;17.20;99.90
7814;DHT22;3952;48.364;16.022;2023-02-22T11:22:30;16.80;99.90
7814;DHT22;3952;48.364;16.022;2023-02-22T11:25:02;16.70;99.90
7814;DHT22;3952;48.364;16.022;2023-02-22T11:27:36;16.60;99.90
7814;DHT22;3952;48.364;16.022;2023-02-22T11:30:18;16.50;99.90
7814;DHT22;3952;48.364;16.022;2023-02-22T11:32:49;16.60;99.90
7814;DHT22;3952;48.364;16.022;2023-02-22T11:35:22;16.60;99.90
7814;DHT22;3952;48.364;16.022;2023-02-22T11:38:14;16.60;99.90
7814;DHT22;3952;48.364;16.022;2023-02-22T11:40:43;16.60;99.90
7814;DHT22;3952;48.364;16.022;2023-02-22T11:43:15;16.60;99.90
7814;DHT22;3952;48.364;16.022;2023-02-22T11:46:02;16.50;99.90
7814;DHT22;3952;48.364;16.022;2023-02-22T11:48:32;16.50;99.90
7814;DHT22;3952;48.364;16.022;2023-02-22T11:51:23;16.50;99.90
7814;DHT22;3952;48.364;16.022;2023-02-22T11:54:18;16.30;99.90
7814;DHT22;3952;48.364;16.022;2023-02-22T11:57:01;16.30;99.90
7814;DHT22;3952;48.364;16.022;2023-02-22T11:59:35;16.40;99.90
7814;DHT22;3952;48.364;16.022;2023-02-22T12:02:22;16.50;99.90
7814;DHT22;3952;48.364;16.022;2023-02-22T12:05:06;16.50;99.90
7814;DHT22;3952;48.364;16.022;2023-02-22T12:07:46;16.60;99.90
7814;DHT22;3952;48.364;16.022;2023-02-22T12:10:23;16.50;99.90
7814;DHT22;3952;48.364;16.022;2023-02-22T12:13:08;16.40;99.90
7814;DHT22;3952;48.364;16.022;2023-02-22T12:15:47;16.40;99.90
7814;DHT22;3952;48.364;16.022;2023-02-22T12:18:23;16.30;99.90
7814;DHT22;3952;48.364;16.022;2023-02-22T12:21:00;16.20;99.90
7814;DHT22;3952;48.364;16.022;2023-02-22T12:23:40;16.00;99.90
7814;DHT22;3952;48.364;16.022;2023-02-22T12:26:14;16.10;99.90
7814;DHT22;3952;48.364;16.022;2023-02-22T12:28:47;16.10;99.90
7814;DHT22;3952;48.364;16.022;2023-02-22T12:31:21;16.20;99.90
7814;DHT22;3952;48.364;16.022;2023-02-22T12:33:59;16.30;99.90
7814;DHT22;3952;48.364;16.022;2023-02-22T12:36:35;16.30;99.90
7814;DHT22;3952;48.364;16.022;2023-02-22T12:41:55;16.40;99.90
7814;DHT22;3952;48.364;16.022;2023-02-22T12:44:27;16.20;99.90
7814;DHT22;3952;48.364;16.022;2023-02-22T12:46:57;16.20;99.90
7814;DHT22;3952;48.364;16.022;2023-02-22T12:49:32;16.20;99.90
7814;DHT22;3952;48.364;16.022;2023-02-22T12:52:08;16.10;99.90
7814;DHT22;3952;48.364;16.022;2023-02-22T12:54:43;16.00;99.90
7814;DHT22;3952;48.364;16.022;2023-02-22T12:57:20;16.00;99.90
7814;DHT22;3952;48.364;16.022;2023-02-22T12:59:56;15.90;99.90
7814;DHT22;3952;48.364;16.022;2023-02-22T13:02:27;16.00;99.90
7814;DHT22;3952;48.364;16.022;2023-02-22T13:04:56;15.90;99.90
7814;DHT22;3952;48.364;16.022;2023-02-22T13:07:33;15.90;99.90
7814;DHT22;3952;48.364;16.022;2023-02-22T13:10:44;15.90;99.90
7814;DHT22;3952;48.364;16.022;2023-02-22T13:13:25;15.80;99.90
7814;DHT22;3952;48.364;16.022;2023-02-22T13:16:00;15.70;99.90
7814;DHT22;3952;48.364;16.022;2023-02-22T13:18:33;15.60;99.90
7814;DHT22;3952;48.364;16.022;2023-02-22T13:21:08;15.60;99.90
7814;DHT22;3952;48.364;16.022;2023-02-22T13:23:46;15.50;99.90
7814;DHT22;3952;48.364;16.022;2023-02-22T13:26:20;15.60;99.90
7814;DHT22;3952;48.364;16.022;2023-02-22T13:28:58;15.60;99.90
7814;DHT22;3952;48.364;16.022;2023-02-22T13:31:54;15.60;99.90
7814;DHT22;3952;48.364;16.022;2023-02-22T13:37:40;15.60;99.90
7814;DHT22;3952;48.364;16.022;2023-02-22T13:40:41;15.70;99.90
7814;DHT22;3952;48.364;16.022;2023-02-22T13:43:25;15.70;99.90
7814;DHT22;3952;48.364;16.022;2023-02-22T13:46:14;15.60;99.90
7814;DHT22;3952;48.364;16.022;2023-02-22T13:51:59;15.40;99.90
7814;DHT22;3952;48.364;16.022;2023-02-22T13:54:36;15.40;99.90
7814;DHT22;3952;48.364;16.022;2023-02-22T13:57:17;15.40;99.90
7814;DHT22;3952;48.364;16.022;2023-02-22T13:59:48;15.40;99.90
7814;DHT22;3952;48.364;16.022;2023-02-22T14:03:00;15.40;99.90
7814;DHT22;3952;48.364;16.022;2023-02-22T14:05:35;15.50;99.90
7814;DHT22;3952;48.364;16.022;2023-02-22T14:08:03;15.40;99.90
7814;DHT22;3952;48.364;16.022;2023-02-22T14:10:48;15.50;99.90
7814;DHT22;3952;48.364;16.022;2023-02-22T14:13:17;15.50;99.90
7814;DHT22;3952;48.364;16.022;2023-02-22T14:16:16;15.50;99.90
7814;DHT22;3952;48.364;16.022;2023-02-22T14:18:47;15.60;99.90
7814;DHT22;3952;48.364;16.022;2023-02-22T14:21:17;15.50;99.90
7814;DHT22;3952;48.364;16.022;2023-02-22T14:23:46;15.50;99.90
7814;DHT22;3952;48.364;16.022;2023-02-22T14:26:18;15.40;99.90
7814;DHT22;3952;48.364;16.022;2023-02-22T14:28:52;15.40;99.90
7814;DHT22;3952;48.364;16.022;2023-02-22T14:31:22;15.40;99.90
7814;DHT22;3952;48.364;16.022;2023-02-22T14:34:04;15.30;99.90
7814;DHT22;3952;48.364;16.022;2023-02-22T14:36:36;15.30;99.90
7814;DHT22;3952;48.364;16.022;2023-02-22T14:39:11;15.30;99.90
7814;DHT22;3952;48.364;16.022;2023-02-22T14:41:45;15.20;99.90
7814;DHT22;3952;48.364;16.022;2023-02-22T14:44:19;15.20;99.90
7814;DHT22;3952;48.364;16.022;2023-02-22T14:46:47;15.10;99.90
7814;DHT22;3952;48.364;16.022;2023-02-22T14:49:18;15.10;99.90
7814;DHT22;3952;48.364;16.022;2023-02-22T14:51:52;15.00;99.90
7814;DHT22;3952;48.364;16.022;2023-02-22T14:54:27;15.00;99.90
7814;DHT22;3952;48.364;16.022;2023-02-22T14:57:08;14.90;99.90
7814;DHT22;3952;48.364;16.022;2023-02-22T14:59:56;14.90;99.90
7814;DHT22;3952;48.364;16.022;2023-02-22T15:02:25;14.80;99.90
7814;DHT22;3952;48.364;16.022;2023-02-22T15:04:55;14.80;99.90
7814;DHT22;3952;48.364;16.022;2023-02-22T15:07:26;14.70;99.90
7814;DHT22;3952;48.364;16.022;2023-02-22T15:10:22;14.70;99.90
7814;DHT22;3952;48.364;16.022;2023-02-22T15:12:52;14.60;99.90
7814;DHT22;3952;48.364;16.022;2023-02-22T15:15:22;14.60;99.90
7814;DHT22;3952;48.364;16.022;2023-02-22T15:17:53;14.50;99.90
7814;DHT22;3952;48.364;16.022;2023-02-22T15:20:24;14.50;99.90
7814;DHT22;3952;48.364;16.022;2023-02-22T15:22:57;14.40;99.90
7814;DHT22;3952;48.364;16.022;2023-02-22T15:25:27;14.40;99.90
7814;DHT22;3952;48.364;16.022;2023-02-22T15:28:01;14.30;99.90
7814;DHT22;3952;48.364;16.022;2023-02-22T15:30:30;14.30;99.90
7814;DHT22;3952;48.364;16.022;2023-02-22T15:33:11;14.20;99.90
7814;DHT22;3952;48.364;16.022;2023-02-22T15:35:41;14.10;99.90
7814;DHT22;3952;48.364;16.022;2023-02-22T15:38:18;14.00;99.90
7814;DHT22;3952;48.364;16.022;2023-02-22T15:40:47;14.00;99.90
7814;DHT22;3952;48.364;16.022;2023-02-22T15:43:18;13.90;99.90
7814;DHT22;3952;48.364;16.022;2023-02-22T15:45:49;13.90;99.90
7814;DHT22;3952;48.364;16.022;2023-02-22T15:48:17;13.90;99.90
7814;DHT22;3952;48.364;16.022;2023-02-22T15:51:08;13.80;99.90
7814;DHT22;3952;48.364;16.022;2023-02-22T15:53:40;13.80;99.90
7814;DHT22;3952;48.364;16.022;2023-02-22T15:56:12;13.70;99.90
7814;DHT22;3952;48.364;16.022;2023-02-22T15:58:42;13.60;99.90
7814;DHT22;3952;48.364;16.022;2023-02-22T16:01:12;13.60;99.90
7814;DHT22;3952;48.364;16.022;2023-02-22T16:03:44;13.60;99.90
7814;DHT22;3952;48.364;16.022;2023-02-22T16:06:20;13.50;99.90
7814;DHT22;3952;48.364;16.022;2023-02-22T16:08:53;13.40;99.90
7814;DHT22;3952;48.364;16.022;2023-02-22T16:11:25;13.40;99.90
7814;DHT22;3952;48.364;16.022;2023-02-22T16:13:59;13.30;99.90
7814;DHT22;3952;48.364;16.022;2023-02-22T16:16:30;13.20;99.90
7814;DHT22;3952;48.364;16.022;2023-02-22T16:19:25;13.10;99.90
7814;DHT22;3952;48.364;16.022;2023-02-22T16:21:56;13.00;99.90
7814;DHT22;3952;48.364;16.022;2023-02-22T16:24:29;12.90;99.90
7814;DHT22;3952;48.364;16.022;2023-02-22T16:27:06;12.80;99.90
7814;DHT22;3952;48.364;16.022;2023-02-22T16:29:33;12.80;99.90
7814;DHT22;3952;48.364;16.022;2023-02-22T16:32:00;12.70;99.90
7814;DHT22;3952;48.364;16.022;2023-02-22T16:34:28;12.60;99.90
7814;DHT22;3952;48.364;16.022;2023-02-22T16:36:57;12.60;99.90
7814;DHT22;3952;48.364;16.022;2023-02-22T16:39:27;12.50;99.90
7814;DHT22;3952;48.364;16.022;2023-02-22T16:41:56;12.40;99.90
7814;DHT22;3952;48.364;16.022;2023-02-22T16:44:24;12.30;99.90